To NAV CANADA Home Page Login to a new session Search on AWWS site Feedback and Comments Disclaimer Vers la page française équivalente Tips FAQ What's new on the site To the Forecasts and Observations / NOTAM section To "File a Flight Plan" website Publications and other links Update of the User's profile FIC Telephone Numbers My Weather Data Folder Route Weather Data Regional Weather Data Local Weather Data To the Forecasts and Observations / NOTAM section
Request Generated 10/18/2017 at 03:46:47 UTC . Weather information available at that time is displayed.

METAR/TAF

QUEBEC/JEAN LESAGE INTL/QC    

METAR CYQB 180300Z 26004KT 15SM OVC033 09/03 A2994 RMK SC8 SLP144=
METAR CYQB 180200Z 24003KT 15SM BKN037 OVC045 08/03 A2997 RMK SC7SC1
SLP151=
METAR CYQB 180100Z 35003KT 280V010 15SM BKN043 OVC058 08/02 A2998 RMK
NS7SC1 SLP156=

TAF CYQB 172339Z 1800/1824 23005KT P6SM OVC040
FM180100 24007KT P6SM OVC030
FM180400 24008KT 6SM -DZ BR OVC015
FM180800 26008KT P6SM FEW007 SCT015 PROB30 1809/1812 3SM BR
BKN007
FM181500 24012KT P6SM SKC
BECMG 1821/1823 22005KT
RMK NXT FCST BY 180600Z=
Your time UTC time
Weather data provided by Environment Canada and NAV CANADA